Time;durP1;ratioP1;P1;durP2;ratioP2;P2;SDS_P1;SDS_P2;PMS_P1;PMS_P2;Temp;Humidity;BMP_temperature;BMP_pressure;BME280_temperature;BME280_humidity;BME280_pressure;Samples;Min_cycle;Max_cycle;Signal;HPM_P1;HPM_P2
2022/09/29 00:00:53;;;;;;;10.63;7.30;;;7.10;99.90;;;;;;5042424;28;20220;-72
2022/09/29 00:03:21;;;;;;;11.10;8.03;;;7.00;99.90;;;;;;5044291;28;20212;-72
2022/09/29 00:05:53;;;;;;;9.00;7.13;;;7.00;99.90;;;;;;5047500;28;20626;-72
2022/09/29 00:08:22;;;;;;;13.53;8.37;;;7.00;99.90;;;;;;5062465;28;20618;-72
2022/09/29 00:10:49;;;;;;;12.50;8.47;;;6.90;99.90;;;;;;5063227;28;20634;-73
2022/09/29 00:13:17;;;;;;;11.70;7.63;;;6.90;99.90;;;;;;5062251;28;20223;-72
2022/09/29 00:15:53;;;;;;;9.70;7.37;;;6.90;99.90;;;;;;5059091;28;20718;-72
2022/09/29 00:18:20;;;;;;;10.17;8.20;;;6.90;99.90;;;;;;5063202;28;20208;-72
2022/09/29 00:20:59;;;;;;;10.60;8.03;;;6.80;99.90;;;;;;5060633;28;20296;-71
2022/09/29 00:23:27;;;;;;;12.03;8.20;;;6.90;99.90;;;;;;5061417;28;20285;-73
2022/09/29 00:26:05;;;;;;;10.33;7.10;;;6.80;99.90;;;;;;5059133;28;20336;-71
2022/09/29 00:28:34;;;;;;;13.13;7.60;;;6.80;99.90;;;;;;5057591;28;20230;-72
2022/09/29 00:31:02;;;;;;;13.37;8.27;;;6.80;99.90;;;;;;5045245;28;20239;-73
2022/09/29 00:33:34;;;;;;;11.40;8.60;;;6.80;99.90;;;;;;5064929;28;20248;-72
2022/09/29 00:36:04;;;;;;;14.73;8.57;;;6.80;99.90;;;;;;5062424;28;20804;-72
2022/09/29 00:38:31;;;;;;;11.77;8.63;;;6.80;99.90;;;;;;5044319;28;20211;-73
2022/09/29 00:40:58;;;;;;;11.37;7.70;;;6.70;99.90;;;;;;5061313;28;20959;-73
2022/09/29 00:43:54;;;;;;;11.57;7.97;;;6.70;99.90;;;;;;5048101;28;20290;-71
2022/09/29 00:46:40;;;;;;;10.63;7.77;;;6.70;99.90;;;;;;5059578;28;20256;-72
2022/09/29 00:49:49;;;;;;;10.33;7.50;;;6.70;99.90;;;;;;5057345;28;20204;-72
2022/09/29 00:52:29;;;;;;;9.63;7.53;;;6.70;99.90;;;;;;5061440;28;20309;-73
2022/09/29 00:55:12;;;;;;;12.60;8.70;;;6.70;99.90;;;;;;5062505;28;20200;-72
2022/09/29 00:57:48;;;;;;;11.37;7.93;;;6.70;99.90;;;;;;5043686;28;20295;-72
2022/09/29 01:00:16;;;;;;;10.17;7.67;;;6.60;99.90;;;;;;5058385;28;20243;-72
2022/09/29 01:02:49;;;;;;;11.70;8.40;;;6.60;99.90;;;;;;5059915;28;20228;-72
2022/09/29 01:05:29;;;;;;;11.80;7.53;;;6.60;99.90;;;;;;5043425;28;20643;-72
2022/09/29 01:07:55;;;;;;;13.03;8.90;;;6.60;99.90;;;;;;5058738;28;20200;-72
2022/09/29 01:10:23;;;;;;;10.13;7.53;;;6.60;99.90;;;;;;5058960;28;20726;-72
2022/09/29 01:12:50;;;;;;;10.73;7.87;;;6.60;99.90;;;;;;5059816;28;20253;-73
2022/09/29 01:15:19;;;;;;;10.93;7.47;;;6.50;99.90;;;;;;5038071;28;20244;-72
2022/09/29 01:17:47;;;;;;;11.40;7.67;;;6.50;99.90;;;;;;5062225;28;20228;-72
2022/09/29 01:20:21;;;;;;;12.30;8.70;;;6.40;99.90;;;;;;5045006;28;20674;-72
2022/09/29 01:23:11;;;;;;;12.07;8.37;;;6.40;99.90;;;;;;5061091;28;20237;-72
2022/09/29 01:25:38;;;;;;;11.17;7.97;;;6.40;99.90;;;;;;5048198;28;20230;-71
2022/09/29 01:28:27;;;;;;;13.47;8.87;;;6.30;99.90;;;;;;5061229;28;20278;-72
2022/09/29 01:31:10;;;;;;;11.30;8.10;;;6.40;99.90;;;;;;5059479;28;20516;-72
2022/09/29 01:33:40;;;;;;;12.67;8.70;;;6.40;99.90;;;;;;5039822;28;20213;-73
2022/09/29 01:36:10;;;;;;;14.43;8.40;;;6.30;99.90;;;;;;5062268;28;20671;-73
2022/09/29 01:38:59;;;;;;;12.37;8.43;;;6.30;99.90;;;;;;5058737;28;20652;-73
2022/09/29 01:41:40;;;;;;;12.10;8.50;;;6.30;99.90;;;;;;5057527;28;20215;-71
2022/09/29 01:44:28;;;;;;;12.40;8.73;;;6.30;99.90;;;;;;5055597;28;20567;-72
2022/09/29 01:47:19;;;;;;;10.67;7.50;;;6.30;99.90;;;;;;5061408;28;20227;-73
2022/09/29 01:49:58;;;;;;;10.90;7.50;;;6.20;99.90;;;;;;5060456;28;20200;-72
2022/09/29 01:52:30;;;;;;;10.23;7.80;;;6.20;99.90;;;;;;5057691;28;20233;-73
2022/09/29 01:55:01;;;;;;;11.77;7.83;;;6.20;99.90;;;;;;5043130;28;20253;-72
2022/09/29 01:57:40;;;;;;;8.67;7.60;;;6.10;99.90;;;;;;5057094;28;20293;-72
2022/09/29 02:00:14;;;;;;;8.93;7.60;;;6.10;99.90;;;;;;5064799;28;20310;-72
2022/09/29 02:03:05;;;;;;;9.60;7.17;;;6.10;99.90;;;;;;5063491;28;20230;-71
2022/09/29 02:05:46;;;;;;;10.07;7.93;;;6.00;99.90;;;;;;5063036;28;20687;-72
2022/09/29 02:08:19;;;;;;;9.73;7.40;;;6.00;99.90;;;;;;5044939;28;20688;-73
2022/09/29 02:11:09;;;;;;;18.27;8.37;;;6.00;99.90;;;;;;5063909;28;20659;-72
2022/09/29 02:13:47;;;;;;;15.77;9.23;;;6.00;99.90;;;;;;5049323;28;20400;-72
2022/09/29 02:16:17;;;;;;;13.40;8.30;;;6.00;99.90;;;;;;5063143;28;20314;-72
2022/09/29 02:18:55;;;;;;;10.90;8.23;;;5.90;99.90;;;;;;5060946;28;20235;-72
2022/09/29 02:21:26;;;;;;;10.57;7.03;;;5.90;99.90;;;;;;5049146;28;20206;-72
2022/09/29 02:23:54;;;;;;;14.30;6.67;;;5.90;99.90;;;;;;5061641;28;20233;-72
2022/09/29 02:26:22;;;;;;;9.10;6.30;;;5.70;99.90;;;;;;5068213;28;20669;-72
2022/09/29 02:28:51;;;;;;;9.17;6.90;;;5.80;99.90;;;;;;5063902;28;20207;-72
2022/09/29 02:31:18;;;;;;;7.30;6.30;;;5.70;99.90;;;;;;5048401;28;20236;-72
2022/09/29 02:33:45;;;;;;;7.73;6.27;;;5.70;99.90;;;;;;5063646;28;20218;-71
2022/09/29 02:36:32;;;;;;;8.63;6.60;;;5.70;99.90;;;;;;5066994;28;20324;-73
2022/09/29 02:39:08;;;;;;;8.30;6.60;;;5.70;99.90;;;;;;5067578;28;20646;-72
2022/09/29 02:41:41;;;;;;;9.00;7.47;;;5.60;99.90;;;;;;5065293;28;20277;-72
2022/09/29 02:44:30;;;;;;;8.20;6.83;;;5.60;99.90;;;;;;5043611;28;20210;-72
2022/09/29 02:47:31;;;;;;;9.87;8.20;;;5.60;99.90;;;;;;5065162;28;20256;-72
2022/09/29 02:50:28;;;;;;;9.97;7.50;;;5.60;99.90;;;;;;5057107;28;20220;-72
2022/09/29 02:53:20;;;;;;;10.90;8.27;;;5.60;99.90;;;;;;5064287;28;20420;-72
2022/09/29 02:56:03;;;;;;;14.17;8.87;;;5.60;99.90;;;;;;5060627;28;20232;-70
2022/09/29 02:58:37;;;;;;;13.70;9.20;;;5.50;99.90;;;;;;5062815;28;20209;-71
2022/09/29 03:01:06;;;;;;;11.90;7.83;;;5.50;99.90;;;;;;5062270;28;20222;-72
2022/09/29 03:03:33;;;;;;;10.27;8.20;;;5.60;99.90;;;;;;5045203;28;20197;-73
2022/09/29 03:06:00;;;;;;;10.30;8.33;;;5.60;99.90;;;;;;5064161;28;20209;-72
2022/09/29 03:08:27;;;;;;;11.23;8.47;;;5.50;99.90;;;;;;5062678;28;20956;-72
2022/09/29 03:10:53;;;;;;;14.63;9.30;;;5.50;99.90;;;;;;5059733;28;20652;-72
2022/09/29 03:13:20;;;;;;;14.07;8.67;;;5.50;99.90;;;;;;5060952;28;20234;-72
2022/09/29 03:15:47;;;;;;;12.53;9.10;;;5.50;99.90;;;;;;5058647;28;20236;-73
2022/09/29 03:18:15;;;;;;;15.93;9.40;;;5.50;99.90;;;;;;5063373;28;20201;-73
2022/09/29 03:20:43;;;;;;;21.87;9.80;;;5.50;99.90;;;;;;5062972;28;20299;-71
2022/09/29 03:23:10;;;;;;;12.93;8.70;;;5.40;99.90;;;;;;5062278;28;20245;-71
2022/09/29 03:25:37;;;;;;;11.23;9.50;;;5.40;99.90;;;;;;5055866;28;20220;-72
2022/09/29 03:28:04;;;;;;;11.57;8.67;;;5.40;99.90;;;;;;5062190;28;20301;-71
2022/09/29 03:30:31;;;;;;;11.07;8.17;;;5.40;99.90;;;;;;5062402;28;20683;-72
2022/09/29 03:32:58;;;;;;;11.40;7.70;;;5.30;99.90;;;;;;5059648;28;20330;-73
2022/09/29 03:35:25;;;;;;;9.97;8.23;;;5.30;99.90;;;;;;5062970;28;20549;-73
2022/09/29 03:37:57;;;;;;;10.30;7.90;;;5.30;99.90;;;;;;5061978;28;20653;-72
2022/09/29 03:40:24;;;;;;;10.80;8.43;;;5.30;99.90;;;;;;5064748;28;20282;-73
2022/09/29 03:42:51;;;;;;;12.70;8.30;;;5.20;99.90;;;;;;5060750;28;20199;-72
2022/09/29 03:45:18;;;;;;;10.93;7.90;;;5.20;99.90;;;;;;5064173;28;20282;-72
2022/09/29 03:47:45;;;;;;;12.03;9.30;;;5.20;99.90;;;;;;5063647;28;20265;-72
2022/09/29 03:50:12;;;;;;;12.37;8.33;;;5.20;99.90;;;;;;5060767;28;20204;-71
2022/09/29 03:52:39;;;;;;;10.30;8.27;;;5.20;99.90;;;;;;5064329;28;20350;-73
2022/09/29 03:55:07;;;;;;;15.33;10.83;;;5.20;99.90;;;;;;5062412;28;20189;-72
2022/09/29 03:57:34;;;;;;;14.10;11.33;;;5.20;99.90;;;;;;5060398;28;20954;-73
2022/09/29 04:00:01;;;;;;;17.37;11.70;;;5.20;99.90;;;;;;5058579;28;20597;-73
2022/09/29 04:02:28;;;;;;;14.20;10.03;;;5.20;99.90;;;;;;5062454;28;20518;-72
2022/09/29 04:04:55;;;;;;;15.13;10.33;;;5.20;99.90;;;;;;5064406;28;20579;-71
2022/09/29 04:07:22;;;;;;;13.17;9.80;;;5.20;99.90;;;;;;5063239;28;20292;-73
2022/09/29 04:09:49;;;;;;;14.07;9.93;;;5.20;99.90;;;;;;5061325;28;20204;-73
2022/09/29 04:12:16;;;;;;;14.40;10.37;;;5.20;99.90;;;;;;5060823;28;20221;-72
2022/09/29 04:14:42;;;;;;;14.33;10.53;;;5.20;99.90;;;;;;5058705;28;20240;-72
2022/09/29 04:17:09;;;;;;;13.30;10.37;;;5.20;99.90;;;;;;5043318;28;20266;-71
2022/09/29 04:19:36;;;;;;;15.13;10.73;;;5.40;99.90;;;;;;5048637;28;20290;-72
2022/09/29 04:22:03;;;;;;;14.90;9.30;;;5.20;99.90;;;;;;5058074;28;20200;-72
2022/09/29 04:24:30;;;;;;;14.20;10.03;;;5.20;99.90;;;;;;5061720;28;20197;-73
2022/09/29 04:26:57;;;;;;;14.97;10.60;;;5.20;99.90;;;;;;5060651;28;20243;-72
2022/09/29 04:29:23;;;;;;;13.87;9.57;;;5.20;99.90;;;;;;5061004;28;20210;-72
2022/09/29 04:31:50;;;;;;;14.27;10.27;;;5.20;99.90;;;;;;5060795;28;20260;-72
2022/09/29 04:34:17;;;;;;;14.23;10.50;;;5.20;99.90;;;;;;5058573;28;20527;-71
2022/09/29 04:36:47;;;;;;;14.73;10.50;;;5.20;99.90;;;;;;5063148;28;20232;-71
2022/09/29 04:39:14;;;;;;;14.10;10.23;;;5.20;99.90;;;;;;5061136;28;20285;-71
2022/09/29 04:41:41;;;;;;;12.67;9.57;;;5.20;99.90;;;;;;5058850;28;20280;-72
2022/09/29 04:44:08;;;;;;;13.97;9.67;;;5.20;99.90;;;;;;5047983;28;20581;-71
2022/09/29 04:46:35;;;;;;;12.30;9.63;;;5.20;99.90;;;;;;5059347;28;20249;-73
2022/09/29 04:49:01;;;;;;;12.83;9.93;;;5.10;99.90;;;;;;5059891;28;20666;-72
2022/09/29 04:51:31;;;;;;;16.00;11.93;;;5.10;99.90;;;;;;5062036;28;20254;-72
2022/09/29 04:53:58;;;;;;;16.93;11.83;;;5.10;99.90;;;;;;5058004;28;20243;-72
2022/09/29 04:56:30;;;;;;;14.10;11.00;;;5.10;99.90;;;;;;5062087;28;20194;-72
2022/09/29 04:58:58;;;;;;;17.10;11.70;;;5.10;99.90;;;;;;5059679;28;20318;-72
2022/09/29 05:01:25;;;;;;;15.90;11.70;;;5.10;99.90;;;;;;5043356;28;20306;-72
2022/09/29 05:03:52;;;;;;;19.37;13.13;;;5.10;99.90;;;;;;5060618;28;20203;-72
2022/09/29 05:06:19;;;;;;;16.43;11.77;;;5.00;99.90;;;;;;5058886;28;20727;-72
2022/09/29 05:08:46;;;;;;;14.37;10.80;;;5.10;99.90;;;;;;5043574;28;20196;-72
2022/09/29 05:11:14;;;;;;;14.53;11.23;;;5.10;99.90;;;;;;5046887;28;20212;-73
2022/09/29 05:13:40;;;;;;;14.63;10.70;;;5.10;99.90;;;;;;5060236;28;20227;-73
2022/09/29 05:16:07;;;;;;;15.13;10.80;;;5.10;99.90;;;;;;5061821;28;20228;-72
2022/09/29 05:18:34;;;;;;;14.53;10.67;;;5.10;99.90;;;;;;5061926;28;20204;-73
2022/09/29 05:21:06;;;;;;;17.23;11.63;;;5.00;99.90;;;;;;5060287;28;20202;-73
2022/09/29 05:23:52;;;;;;;12.53;9.97;;;5.10;99.90;;;;;;5059406;28;20208;-74
2022/09/29 05:26:19;;;;;;;14.40;10.97;;;5.10;99.90;;;;;;5055402;28;20199;-72
2022/09/29 05:28:49;;;;;;;16.50;11.63;;;5.00;99.90;;;;;;5060018;28;20587;-72
2022/09/29 05:31:16;;;;;;;13.07;10.87;;;5.00;99.90;;;;;;5047522;28;20239;-72
2022/09/29 05:33:43;;;;;;;17.17;11.77;;;5.00;99.90;;;;;;5062736;28;20237;-73
2022/09/29 05:36:11;;;;;;;18.27;10.70;;;5.00;99.90;;;;;;5044044;28;20323;-73
2022/09/29 05:38:39;;;;;;;18.00;11.77;;;5.00;99.90;;;;;;5053168;28;20678;-73
2022/09/29 05:41:09;;;;;;;16.87;10.77;;;5.00;99.90;;;;;;5047787;28;20258;-73
2022/09/29 05:43:36;;;;;;;21.40;11.23;;;4.90;99.90;;;;;;5045960;28;20243;-72
2022/09/29 05:46:04;;;;;;;30.03;12.93;;;4.90;99.90;;;;;;5062365;28;20223;-74
2022/09/29 05:48:32;;;;;;;34.03;14.07;;;4.90;99.90;;;;;;5060239;28;20664;-74
2022/09/29 05:51:05;;;;;;;20.87;13.93;;;4.90;99.90;;;;;;5042731;28;20290;-72
2022/09/29 05:53:32;;;;;;;25.33;13.80;;;5.00;99.90;;;;;;5057698;28;20622;-75
2022/09/29 05:56:07;;;;;;;21.13;14.43;;;5.00;99.90;;;;;;5044936;28;20241;-72
2022/09/29 05:58:35;;;;;;;36.17;16.37;;;5.10;99.90;;;;;;5059594;28;20204;-72
2022/09/29 06:01:10;;;;;;;30.33;16.27;;;5.10;99.90;;;;;;5057745;28;20212;-72
2022/09/29 06:03:37;;;;;;;38.83;14.80;;;5.10;99.90;;;;;;5056323;28;20573;-72
2022/09/29 06:06:09;;;;;;;29.97;15.57;;;5.20;99.90;;;;;;5057785;28;21712;-72
2022/09/29 06:08:37;;;;;;;27.53;16.07;;;5.20;99.90;;;;;;5059369;28;20568;-73
2022/09/29 06:11:16;;;;;;;30.87;16.00;;;5.20;99.90;;;;;;5061488;28;20208;-72
2022/09/29 06:13:47;;;;;;;31.43;16.20;;;5.30;99.90;;;;;;5057348;28;20555;-72
2022/09/29 06:16:18;;;;;;;31.97;15.73;;;5.40;99.90;;;;;;5056750;28;20419;-73
2022/09/29 06:18:46;;;;;;;51.80;16.90;;;5.50;99.90;;;;;;5057750;28;20258;-73
2022/09/29 06:21:22;;;;;;;59.90;18.20;;;5.50;99.90;;;;;;5058710;28;20223;-72
2022/09/29 06:23:50;;;;;;;40.13;16.00;;;5.60;99.90;;;;;;5060114;28;20729;-72
2022/09/29 06:26:18;;;;;;;57.27;17.07;;;5.60;99.90;;;;;;5057838;28;20228;-73
2022/09/29 06:28:50;;;;;;;65.63;18.10;;;5.70;99.90;;;;;;5061505;28;20220;-74
2022/09/29 06:31:20;;;;;;;40.33;17.50;;;5.80;99.90;;;;;;5056794;28;20239;-73
2022/09/29 06:33:47;;;;;;;66.23;20.10;;;5.90;99.90;;;;;;5062459;28;20253;-72
2022/09/29 06:39:13;;;;;;;49.80;16.43;;;6.00;99.90;;;;;;5057127;28;20677;-72
2022/09/29 06:41:43;;;;;;;89.73;20.47;;;6.10;99.90;;;;;;5060473;28;20258;-72
2022/09/29 06:44:13;;;;;;;59.17;16.07;;;6.20;99.90;;;;;;5041106;28;20225;-73
2022/09/29 06:46:40;;;;;;;76.07;21.63;;;6.20;99.90;;;;;;5047705;28;20333;-70
2022/09/29 06:49:07;;;;;;;32.33;17.00;;;6.30;99.90;;;;;;5062235;28;20670;-71
2022/09/29 06:51:34;;;;;;;37.47;18.13;;;6.30;99.90;;;;;;5065165;28;20209;-71
2022/09/29 06:54:13;;;;;;;43.27;17.90;;;6.40;99.90;;;;;;5059875;28;20237;-72
2022/09/29 06:56:40;;;;;;;45.87;17.07;;;6.50;99.90;;;;;;5062646;28;20222;-72
2022/09/29 06:59:07;;;;;;;33.20;16.73;;;6.70;99.90;;;;;;5058205;28;20240;-71
2022/09/29 07:01:34;;;;;;;46.60;15.87;;;6.80;99.90;;;;;;5064256;28;20224;-72
2022/09/29 07:04:01;;;;;;;33.43;15.33;;;6.90;99.90;;;;;;5062752;28;20246;-71
2022/09/29 07:06:28;;;;;;;29.77;14.90;;;7.00;99.90;;;;;;5057477;28;20683;-72
2022/09/29 07:08:57;;;;;;;25.37;15.03;;;7.10;99.90;;;;;;5045043;28;20230;-72
2022/09/29 07:11:25;;;;;;;26.03;13.37;;;7.20;99.90;;;;;;5063250;28;20212;-72
2022/09/29 07:13:53;;;;;;;30.20;14.40;;;7.30;99.90;;;;;;5061406;28;20234;-72
2022/09/29 07:16:24;;;;;;;19.03;13.50;;;7.40;99.90;;;;;;5045565;28;20217;-73
2022/09/29 07:18:52;;;;;;;23.90;15.37;;;7.60;99.90;;;;;;5061440;28;20208;-72
2022/09/29 07:21:20;;;;;;;24.03;14.53;;;7.10;99.90;;;;;;5062212;28;20198;-73
2022/09/29 07:23:47;;;;;;;18.30;13.10;;;;;;;;;;5061786;28;20216;-71
2022/09/29 07:26:15;;;;;;;19.83;13.50;;;8.20;99.90;;;;;;5065189;28;20235;-72
2022/09/29 07:28:44;;;;;;;17.23;13.63;;;8.10;99.90;;;;;;5061370;28;20203;-71
2022/09/29 07:31:17;;;;;;;19.00;13.43;;;8.20;99.90;;;;;;5064035;28;20220;-72
2022/09/29 07:33:45;;;;;;;21.70;14.57;;;8.30;99.90;;;;;;5062925;28;20239;-72
2022/09/29 07:36:14;;;;;;;17.87;12.77;;;8.50;99.90;;;;;;5062942;28;20300;-73
2022/09/29 07:38:43;;;;;;;18.07;12.73;;;8.60;99.90;;;;;;5048336;28;20200;-72
2022/09/29 07:41:11;;;;;;;18.50;12.70;;;8.50;99.90;;;;;;5060021;28;20204;-72
2022/09/29 07:43:38;;;;;;;16.20;12.90;;;8.90;99.90;;;;;;5060044;28;20750;-71
2022/09/29 07:46:06;;;;;;;16.40;12.77;;;9.00;99.90;;;;;;5057800;28;20307;-73
2022/09/29 07:48:34;;;;;;;16.30;12.07;;;9.10;99.90;;;;;;5059027;28;20204;-73
2022/09/29 07:51:04;;;;;;;16.50;12.17;;;9.60;99.90;;;;;;5046835;28;20291;-72
2022/09/29 07:53:32;;;;;;;14.13;11.73;;;9.30;99.90;;;;;;5060672;28;20231;-72
2022/09/29 07:56:14;;;;;;;14.97;12.03;;;9.50;99.90;;;;;;5061398;28;20206;-72
2022/09/29 07:58:41;;;;;;;17.77;12.37;;;9.50;99.90;;;;;;5048124;28;20203;-72
2022/09/29 08:01:11;;;;;;;17.97;12.30;;;;;;;;;;5058802;28;20289;-72
2022/09/29 08:03:40;;;;;;;14.90;11.83;;;9.70;99.90;;;;;;5064653;28;20265;-71
2022/09/29 08:06:08;;;;;;;14.60;12.20;;;9.70;99.90;;;;;;5041724;28;20285;-71
2022/09/29 08:08:38;;;;;;;16.87;12.20;;;9.70;99.90;;;;;;5062107;28;20212;-72
2022/09/29 08:11:14;;;;;;;22.53;14.93;;;9.70;99.90;;;;;;5060441;28;20204;-72
2022/09/29 08:13:53;;;;;;;17.07;12.07;;;9.70;99.90;;;;;;5062505;28;20249;-72
2022/09/29 08:16:20;;;;;;;19.73;14.03;;;9.80;99.90;;;;;;5042790;28;20541;-71
2022/09/29 08:18:47;;;;;;;20.17;12.97;;;9.90;99.90;;;;;;5062620;28;20201;-72
2022/09/29 08:21:14;;;;;;;18.37;13.40;;;9.90;99.90;;;;;;5055124;28;20252;-72
2022/09/29 08:23:42;;;;;;;19.57;14.00;;;10.00;99.90;;;;;;5062452;28;20205;-71
2022/09/29 08:26:14;;;;;;;17.43;13.97;;;;;;;;;;5060296;28;20192;-71
2022/09/29 08:28:42;;;;;;;18.50;14.30;;;10.30;99.90;;;;;;5045039;28;20216;-72
2022/09/29 08:31:12;;;;;;;16.77;12.50;;;10.60;99.90;;;;;;5054800;28;20220;-72
2022/09/29 08:33:39;;;;;;;15.20;11.83;;;11.00;99.90;;;;;;5061709;28;20635;-71
2022/09/29 08:36:13;;;;;;;14.53;12.53;;;11.40;99.90;;;;;;5059210;28;20580;-72
2022/09/29 08:38:44;;;;;;;17.80;13.80;;;;;;;;;;5059680;28;20216;-72
2022/09/29 08:41:22;;;;;;;17.77;13.83;;;12.40;99.90;;;;;;5060469;28;20204;-71
2022/09/29 08:43:53;;;;;;;17.63;12.63;;;12.80;99.90;;;;;;5058524;28;20217;-72
2022/09/29 08:46:56;;;;;;;17.13;13.47;;;13.10;99.90;;;;;;5063317;28;20302;-73
2022/09/29 08:49:46;;;;;;;19.57;13.07;;;13.20;99.90;;;;;;5026471;28;20207;-71
2022/09/29 08:52:28;;;;;;;19.10;15.53;;;13.20;99.90;;;;;;5058367;28;20295;-72
2022/09/29 08:55:21;;;;;;;19.90;15.53;;;13.20;99.90;;;;;;5042388;28;20209;-72
2022/09/29 08:57:58;;;;;;;21.77;16.43;;;13.10;99.90;;;;;;5054428;28;20616;-72
2022/09/29 09:00:50;;;;;;;19.07;15.73;;;13.20;99.90;;;;;;5059134;28;20215;-72
2022/09/29 09:03:29;;;;;;;23.07;17.63;;;13.50;99.90;;;;;;5059524;28;20619;-73
2022/09/29 09:06:10;;;;;;;25.50;19.53;;;13.70;99.90;;;;;;5061260;28;20291;-72
2022/09/29 09:09:03;;;;;;;27.80;19.23;;;13.60;99.90;;;;;;5058617;28;20265;-71
2022/09/29 09:11:37;;;;;;;28.53;21.00;;;13.60;99.90;;;;;;5054950;28;20205;-71
2022/09/29 09:14:24;;;;;;;31.03;21.67;;;13.50;99.90;;;;;;5061962;28;20527;-71
2022/09/29 09:16:51;;;;;;;30.57;22.60;;;13.40;99.90;;;;;;5060554;28;20302;-71
2022/09/29 09:19:33;;;;;;;30.87;22.97;;;13.40;99.90;;;;;;5062522;28;20621;-72
2022/09/29 09:22:09;;;;;;;31.87;23.50;;;13.40;99.90;;;;;;5054993;28;20212;-72
2022/09/29 09:24:40;;;;;;;34.00;24.20;;;13.50;99.90;;;;;;5043418;28;20208;-72
2022/09/29 09:27:14;;;;;;;35.63;24.63;;;13.70;99.90;;;;;;5061408;28;20204;-72
2022/09/29 09:29:43;;;;;;;33.80;22.87;;;13.80;99.90;;;;;;5059157;28;20638;-73
2022/09/29 09:32:14;;;;;;;37.17;22.53;;;14.10;99.90;;;;;;5043451;28;20370;-71
2022/09/29 09:34:53;;;;;;;31.30;22.57;;;14.30;99.90;;;;;;5057094;28;20229;-71
2022/09/29 09:37:39;;;;;;;31.17;24.13;;;14.50;99.90;;;;;;5067350;28;20661;-72
2022/09/29 09:40:18;;;;;;;33.73;24.70;;;14.60;99.90;;;;;;5059425;28;20694;-72
2022/09/29 09:43:03;;;;;;;31.77;24.53;;;14.60;99.90;;;;;;5045236;28;20304;-72
2022/09/29 09:45:55;;;;;;;30.83;23.87;;;14.50;99.90;;;;;;5043549;28;20219;-71
2022/09/29 09:48:33;;;;;;;31.30;23.40;;;14.50;99.90;;;;;;5030547;28;20628;-73
2022/09/29 09:51:28;;;;;;;27.87;21.97;;;14.50;99.90;;;;;;5058516;28;20748;-72
2022/09/29 09:53:57;;;;;;;27.17;19.93;;;14.60;99.90;;;;;;5053709;28;20235;-72
2022/09/29 09:56:38;;;;;;;27.63;21.93;;;14.60;99.90;;;;;;5061095;28;20557;-72
2022/09/29 09:59:14;;;;;;;35.17;26.03;;;14.50;99.90;;;;;;5057686;28;20208;-73
2022/09/29 10:01:41;;;;;;;35.00;24.83;;;14.40;99.90;;;;;;5059684;28;20230;-72
2022/09/29 10:04:11;;;;;;;30.87;23.70;;;14.40;99.90;;;;;;5064142;28;20211;-73
2022/09/29 10:06:39;;;;;;;28.43;22.43;;;14.30;99.90;;;;;;5058274;28;20280;-71
2022/09/29 10:09:13;;;;;;;31.07;22.10;;;14.20;99.90;;;;;;5044335;28;20211;-71
2022/09/29 10:11:42;;;;;;;33.30;24.90;;;14.10;99.90;;;;;;5059202;28;20643;-73
2022/09/29 10:14:25;;;;;;;33.77;23.97;;;14.10;99.90;;;;;;5042956;28;20315;-71
2022/09/29 10:17:06;;;;;;;30.80;23.77;;;14.00;99.90;;;;;;5057340;28;20220;-72
2022/09/29 10:19:56;;;;;;;33.50;25.07;;;13.90;99.90;;;;;;5058815;28;20212;-72
2022/09/29 10:22:24;;;;;;;31.67;22.57;;;13.80;99.90;;;;;;5047540;28;20292;-72
2022/09/29 10:25:27;;;;;;;33.33;24.13;;;13.70;99.90;;;;;;5064157;28;20673;-72
2022/09/29 10:27:56;;;;;;;39.60;25.93;;;13.70;99.90;;;;;;4967694;28;20608;-72
2022/09/29 10:30:32;;;;;;;33.67;24.33;;;13.70;99.90;;;;;;5042639;28;20208;-72
2022/09/29 10:33:02;;;;;;;32.00;24.73;;;13.70;99.90;;;;;;5063744;28;20221;-73
2022/09/29 10:35:35;;;;;;;31.20;21.93;;;13.70;99.90;;;;;;5063237;28;20307;-73
2022/09/29 10:38:14;;;;;;;28.57;21.60;;;13.80;99.90;;;;;;5063183;28;20201;-73
2022/09/29 10:41:05;;;;;;;28.80;20.57;;;13.90;99.90;;;;;;5060763;28;20223;-72
2022/09/29 10:43:41;;;;;;;29.50;21.07;;;14.10;99.90;;;;;;5065921;28;20205;-73
2022/09/29 10:46:45;;;;;;;28.97;21.93;;;14.20;99.90;;;;;;5062297;28;20741;-72
2022/09/29 10:49:20;;;;;;;36.13;23.90;;;14.40;99.90;;;;;;5061102;28;20242;-73
2022/09/29 10:51:52;;;;;;;29.87;23.43;;;14.50;99.90;;;;;;5044243;28;20188;-74
2022/09/29 10:54:24;;;;;;;28.43;19.60;;;14.70;99.90;;;;;;5063794;28;20323;-73
2022/09/29 10:56:52;;;;;;;20.87;16.60;;;14.80;99.90;;;;;;5046391;28;20683;-73
2022/09/29 10:59:22;;;;;;;23.20;18.43;;;15.00;99.90;;;;;;5055539;28;20441;-73
2022/09/29 11:02:00;;;;;;;21.67;16.47;;;15.20;99.90;;;;;;5061560;28;20290;-73
2022/09/29 11:04:32;;;;;;;22.67;17.13;;;15.30;99.90;;;;;;5041580;28;20688;-72
2022/09/29 11:07:11;;;;;;;24.47;17.93;;;15.40;99.90;;;;;;5063412;28;20208;-71
2022/09/29 11:09:43;;;;;;;20.23;16.03;;;15.60;99.90;;;;;;5060996;28;20383;-72
2022/09/29 11:12:33;;;;;;;22.37;14.63;;;15.80;99.90;;;;;;5061866;28;20203;-71
2022/09/29 11:15:00;;;;;;;12.97;10.37;;;15.90;99.90;;;;;;5062405;28;20708;-72
2022/09/29 11:17:37;;;;;;;13.77;10.80;;;16.00;99.90;;;;;;5049357;28;20212;-72
2022/09/29 11:20:10;;;;;;;17.07;10.53;;;16.10;99.90;;;;;;5061856;28;20200;-72
2022/09/29 11:22:59;;;;;;;13.13;9.70;;;16.10;99.90;;;;;;5066251;28;20288;-71
2022/09/29 11:25:49;;;;;;;12.87;10.87;;;16.20;99.90;;;;;;5063989;28;20230;-72
2022/09/29 11:28:22;;;;;;;10.87;8.83;;;16.40;99.90;;;;;;5062081;28;20224;-72
2022/09/29 11:31:08;;;;;;;13.85;10.30;;;16.50;99.90;;;;;;5048974;28;20219;-72
2022/09/29 11:33:41;;;;;;;14.38;9.18;;;16.60;99.90;;;;;;5058955;28;20311;-71
2022/09/29 11:36:32;;;;;;;10.40;7.97;;;16.80;99.90;;;;;;5058918;28;20247;-70
2022/09/29 11:39:25;;;;;;;10.45;8.20;;;17.00;99.90;;;;;;5061636;28;20200;-71
2022/09/29 11:42:19;;;;;;;11.38;8.35;;;17.20;99.90;;;;;;5058946;28;20419;-72
2022/09/29 11:44:59;;;;;;;13.73;9.20;;;17.50;99.90;;;;;;5063504;28;20194;-71
2022/09/29 11:47:42;;;;;;;12.10;8.95;;;;;;;;;;5050433;28;20273;-71
2022/09/29 11:50:30;;;;;;;11.20;9.02;;;17.90;99.90;;;;;;5063421;28;20208;-72
2022/09/29 11:53:17;;;;;;;11.15;8.90;;;18.00;99.90;;;;;;5042204;28;20208;-72
2022/09/29 11:56:07;;;;;;;13.95;9.07;;;18.10;99.90;;;;;;5059686;28;20205;-72
2022/09/29 11:58:56;;;;;;;14.63;9.93;;;18.20;99.90;;;;;;5060908;28;20578;-72
2022/09/29 12:02:16;;;;;;;13.20;10.38;;;18.20;99.90;;;;;;5060234;28;20703;-72
2022/09/29 12:05:06;;;;;;;10.50;8.52;;;18.00;99.90;;;;;;5059649;28;20208;-71
2022/09/29 12:07:39;;;;;;;11.68;7.85;;;18.00;99.90;;;;;;5040706;28;20213;-72
2022/09/29 12:10:34;;;;;;;15.38;9.43;;;18.10;99.90;;;;;;5060127;28;20205;-73
2022/09/29 12:13:19;;;;;;;10.70;7.95;;;18.20;99.90;;;;;;5062465;28;20644;-73
2022/09/29 12:15:49;;;;;;;12.32;8.20;;;18.10;99.90;;;;;;5059442;28;20216;-72
2022/09/29 12:18:21;;;;;;;11.43;8.88;;;18.00;99.90;;;;;;5061430;28;20208;-71
2022/09/29 12:20:52;;;;;;;12.50;8.45;;;17.80;99.90;;;;;;5046630;28;20283;-72
2022/09/29 12:23:22;;;;;;;12.40;9.07;;;17.60;99.90;;;;;;5061518;28;20630;-72
2022/09/29 12:26:02;;;;;;;8.73;7.57;;;17.40;99.90;;;;;;5066190;28;20303;-73
2022/09/29 12:28:53;;;;;;;11.20;7.43;;;17.20;99.90;;;;;;5057442;28;20209;-73
2022/09/29 12:31:30;;;;;;;9.60;7.88;;;17.00;99.90;;;;;;5058880;28;20224;-72
2022/09/29 12:34:05;;;;;;;10.70;7.80;;;16.90;99.90;;;;;;5061923;28;20318;-72
2022/09/29 12:36:44;;;;;;;12.50;7.57;;;16.80;99.90;;;;;;5060685;28;20290;-72
2022/09/29 12:39:25;;;;;;;10.43;7.55;;;16.80;99.90;;;;;;5060495;28;20672;-71
2022/09/29 12:42:01;;;;;;;11.05;8.40;;;16.60;99.90;;;;;;5058638;28;20220;-72
2022/09/29 12:44:51;;;;;;;11.07;7.60;;;16.50;99.90;;;;;;5039310;28;20223;-71
2022/09/29 12:47:37;;;;;;;9.55;7.68;;;16.40;99.90;;;;;;5057928;28;20260;-74
2022/09/29 12:50:16;;;;;;;9.95;7.30;;;16.40;99.90;;;;;;5059971;28;20481;-72
2022/09/29 12:53:10;;;;;;;9.05;7.57;;;16.50;99.90;;;;;;5060712;28;20668;-72
2022/09/29 12:55:49;;;;;;;11.02;6.60;;;16.50;99.90;;;;;;5063638;28;20259;-73
2022/09/29 12:58:30;;;;;;;9.45;7.18;;;16.40;99.90;;;;;;5063323;28;20233;-74
2022/09/29 13:01:20;;;;;;;9.25;6.97;;;16.50;99.90;;;;;;5058623;28;20511;-72
2022/09/29 13:04:14;;;;;;;10.27;6.82;;;16.40;99.90;;;;;;5059974;28;20843;-72
2022/09/29 13:07:07;;;;;;;11.27;7.38;;;16.40;99.90;;;;;;5060549;28;20793;-71
2022/09/29 13:10:01;;;;;;;11.73;8.25;;;16.40;99.90;;;;;;5035570;28;20244;-74
2022/09/29 13:12:28;;;;;;;11.85;7.97;;;16.30;99.90;;;;;;5056458;28;20304;-71
2022/09/29 13:15:29;;;;;;;11.63;7.68;;;16.20;99.90;;;;;;5061897;28;20235;-72
2022/09/29 13:18:35;;;;;;;12.15;8.20;;;16.20;99.90;;;;;;5059579;28;20231;-72
2022/09/29 13:21:15;;;;;;;9.97;7.57;;;16.10;99.90;;;;;;5036510;28;20300;-71